Time;durP1;ratioP1;P1;durP2;ratioP2;P2;SDS_P1;SDS_P2;PMS_P1;PMS_P2;Temp;Humidity;BMP_temperature;BMP_pressure;BME280_temperature;BME280_humidity;BME280_pressure;Samples;Min_cycle;Max_cycle;Signal;HPM_P1;HPM_P2
2022/02/17 00:00:40;;;;;;;3.35;0.95;;;;;;;;;;5052417;28;20488;-78
2022/02/17 00:03:06;;;;;;;0.65;0.65;;;;;;;;;;5051947;28;20028;-78
2022/02/17 00:05:33;;;;;;;1.25;0.73;;;;;;;;;;5053413;28;20529;-78
2022/02/17 00:07:59;;;;;;;5.05;1.20;;;;;;;;;;5053209;28;20032;-79
2022/02/17 00:10:25;;;;;;;0.57;0.57;;;;;;;;;;5053440;28;20031;-77
2022/02/17 00:12:53;;;;;;;1.92;1.17;;;;;;;;;;5053588;28;20104;-79
2022/02/17 00:15:18;;;;;;;1.25;1.05;;;;;;;;;;5051652;28;20064;-77
2022/02/17 00:17:45;;;;;;;1.05;0.95;;;;;;;;;;5052111;28;20024;-77
2022/02/17 00:20:11;;;;;;;1.30;0.90;;;;;;;;;;5052874;28;20123;-77
2022/02/17 00:22:38;;;;;;;1.23;0.60;;;;;;;;;;5053259;28;20060;-77
2022/02/17 00:25:04;;;;;;;2.90;1.02;;;;;;;;;;5051949;28;20028;-77
2022/02/17 00:27:30;;;;;;;1.02;1.00;;;;;;;;;;5053394;28;20028;-77
2022/02/17 00:29:55;;;;;;;1.17;1.08;;;;;;;;;;5053276;28;20455;-77
2022/02/17 00:32:24;;;;;;;0.73;0.60;;;;;;;;;;5051662;28;20013;-77
2022/02/17 00:34:50;;;;;;;0.80;0.80;;;;;;;;;;5051667;28;20035;-77
2022/02/17 00:37:16;;;;;;;0.75;0.75;;;;;;;;;;5051642;28;20473;-77
2022/02/17 00:39:41;;;;;;;1.17;0.80;;;;;;;;;;5053315;28;20025;-77
2022/02/17 00:42:08;;;;;;;0.88;0.55;;;;;;;;;;5051813;28;20447;-77
2022/02/17 00:44:33;;;;;;;1.33;0.93;;;;;;;;;;5051738;28;20123;-73
2022/02/17 00:46:58;;;;;;;1.08;0.90;;;;;;;;;;5052276;28;20083;-72
2022/02/17 00:49:29;;;;;;;1.95;1.00;;;;;;;;;;5055315;28;20583;-71
2022/02/17 00:51:54;;;;;;;0.65;0.57;;;;;;;;;;5056611;28;20029;-71
2022/02/17 00:54:21;;;;;;;0.80;0.80;;;;;;;;;;5055230;28;20098;-72
2022/02/17 00:56:46;;;;;;;0.77;0.77;;;;;;;;;;5055247;28;20439;-72
2022/02/17 00:59:12;;;;;;;1.05;1.00;;;;;;;;;;5054996;28;20049;-72
2022/02/17 01:01:46;;;;;;;1.38;0.90;;;;;;;;;;5055300;28;20020;-77
2022/02/17 01:04:12;;;;;;;0.60;0.50;;;;;;;;;;5055545;28;20025;-76
2022/02/17 01:06:39;;;;;;;0.47;0.47;;;;;;;;;;5056315;28;20305;-77
2022/02/17 01:09:09;;;;;;;1.02;0.93;;;;;;;;;;5055004;28;20036;-76
2022/02/17 01:11:34;;;;;;;0.50;0.50;;;;;;;;;;5056410;28;20598;-76
2022/02/17 01:14:01;;;;;;;1.60;0.85;;;;;;;;;;5055153;28;20371;-76
2022/02/17 01:16:26;;;;;;;0.40;0.40;;;;;;;;;;5056139;28;20021;-74
2022/02/17 01:18:52;;;;;;;1.55;0.80;;;;;;;;;;5055058;28;20521;-76
2022/02/17 01:21:20;;;;;;;2.15;0.70;;;;;;;;;;5055987;28;20021;-76
2022/02/17 01:23:45;;;;;;;1.83;0.98;;;;;;;;;;5055080;28;20037;-74
2022/02/17 01:26:12;;;;;;;0.85;0.75;;;;;;;;;;5054792;28;20032;-75
2022/02/17 01:28:47;;;;;;;0.52;0.52;;;;;;;;;;5054696;28;20036;-77
2022/02/17 01:31:16;;;;;;;1.63;0.85;;;;;;;;;;5054593;28;20124;-78
2022/02/17 01:33:42;;;;;;;0.40;0.40;;;;;;;;;;5055794;28;20021;-76
2022/02/17 01:36:15;;;;;;;5.07;0.80;;;;;;;;;;5054671;28;20028;-77
2022/02/17 01:38:44;;;;;;;1.75;0.63;;;;;;;;;;5054718;28;20120;-76
2022/02/17 01:41:10;;;;;;;1.02;0.70;;;;;;;;;;5054645;28;20024;-76
2022/02/17 01:43:36;;;;;;;0.50;0.50;;;;;;;;;;5054766;28;20079;-76
2022/02/17 01:46:04;;;;;;;0.60;0.60;;;;;;;;;;5054714;28;20024;-76
2022/02/17 01:48:31;;;;;;;1.13;0.55;;;;;;;;;;5052806;28;20049;-71
2022/02/17 01:50:57;;;;;;;0.80;0.80;;;;;;;;;;5055541;28;20032;-77
2022/02/17 01:53:25;;;;;;;0.88;0.77;;;;;;;;;;5054329;28;20597;-77
2022/02/17 01:55:55;;;;;;;1.00;0.90;;;;;;;;;;5038027;28;20479;-77
2022/02/17 01:58:21;;;;;;;1.00;1.00;;;;;;;;;;5053565;28;20025;-76
2022/02/17 02:00:47;;;;;;;0.85;0.80;;;;;;;;;;5054265;28;20025;-77
2022/02/17 02:03:16;;;;;;;0.73;0.70;;;;;;;;;;5054250;28;20435;-76
2022/02/17 02:05:53;;;;;;;1.10;0.80;;;;;;;;;;5053985;28;20533;-76
2022/02/17 02:08:20;;;;;;;0.98;0.70;;;;;;;;;;5053842;28;20025;-76
2022/02/17 02:10:48;;;;;;;0.77;0.77;;;;;;;;;;5053846;28;20115;-76
2022/02/17 02:13:14;;;;;;;0.90;0.90;;;;;;;;;;5054209;28;20029;-76
2022/02/17 02:15:53;;;;;;;1.30;1.02;;;;;;;;;;5053876;28;20024;-76
2022/02/17 02:18:21;;;;;;;0.95;0.95;;;;;;;;;;5053813;28;20489;-76
2022/02/17 02:20:54;;;;;;;0.88;0.57;;;;;;;;;;5053853;28;20463;-77
2022/02/17 02:23:25;;;;;;;1.30;1.08;;;;;;;;;;5054303;28;20033;-77
2022/02/17 02:26:03;;;;;;;1.13;0.93;;;;;;;;;;5053813;28;20029;-77
2022/02/17 02:28:33;;;;;;;1.13;1.02;;;;;;;;;;5053715;28;20021;-76
2022/02/17 02:31:01;;;;;;;1.65;1.25;;;;;;;;;;5053902;28;20104;-77
2022/02/17 02:33:29;;;;;;;0.90;0.90;;;;;;;;;;5054045;28;20052;-77
2022/02/17 02:35:56;;;;;;;0.90;0.90;;;;;;;;;;5053786;28;20025;-77
2022/02/17 02:38:25;;;;;;;0.90;0.90;;;;;;;;;;5053110;28;20029;-77
2022/02/17 02:40:50;;;;;;;0.88;0.88;;;;;;;;;;5054430;28;20040;-78
2022/02/17 02:43:41;;;;;;;0.47;0.47;;;;;;;;;;5053857;28;20191;-78
2022/02/17 02:46:10;;;;;;;1.00;1.00;;;;;;;;;;5053635;28;20368;-78
2022/02/17 02:48:37;;;;;;;0.32;0.32;;;;;;;;;;5052996;28;20045;-71
2022/02/17 02:51:05;;;;;;;0.50;0.50;;;;;;;;;;5037060;28;20033;-72
2022/02/17 02:53:30;;;;;;;0.90;0.90;;;;;;;;;;5053289;28;20344;-76
2022/02/17 02:55:56;;;;;;;0.90;0.90;;;;;;;;;;5052944;28;20025;-77
2022/02/17 02:58:21;;;;;;;1.38;1.27;;;;;;;;;;5036629;28;20025;-76
2022/02/17 03:00:51;;;;;;;1.25;0.52;;;;;;;;;;5053048;28;20033;-76
2022/02/17 03:03:17;;;;;;;0.77;0.77;;;;;;;;;;5054364;28;20436;-71
2022/02/17 03:05:44;;;;;;;0.65;0.65;;;;;;;;;;5052836;28;20064;-71
2022/02/17 03:08:09;;;;;;;1.05;0.98;;;;;;;;;;5052557;28;20027;-71
2022/02/17 03:10:35;;;;;;;0.88;0.88;;;;;;;;;;5053173;28;20089;-71
2022/02/17 03:13:02;;;;;;;0.43;0.43;;;;;;;;;;5052796;28;20021;-72
2022/02/17 03:15:32;;;;;;;0.95;0.85;;;;;;;;;;5054042;28;20031;-71
2022/02/17 03:17:57;;;;;;;0.47;0.47;;;;;;;;;;5052698;28;20123;-70
2022/02/17 03:20:23;;;;;;;0.73;0.63;;;;;;;;;;5054021;28;20025;-71
2022/02/17 03:22:49;;;;;;;1.20;0.80;;;;;;;;;;5035886;28;20017;-71
2022/02/17 03:25:15;;;;;;;0.65;0.60;;;;;;;;;;5052475;28;20033;-72
2022/02/17 03:27:42;;;;;;;0.50;0.50;;;;;;;;;;5036131;28;20025;-72
2022/02/17 03:30:31;;;;;;;0.35;0.35;;;;;;;;;;5050574;28;20123;-72
2022/02/17 03:33:03;;;;;;;0.50;0.50;;;;;;;;;;5052685;28;20111;-71
2022/02/17 03:35:31;;;;;;;1.50;0.90;;;;;;;;;;5052657;28;20067;-71
2022/02/17 03:37:57;;;;;;;1.15;1.10;;;;;;;;;;5052287;28;20016;-70
2022/02/17 03:40:26;;;;;;;0.68;0.68;;;;;;;;;;5052636;28;20017;-71
2022/02/17 03:42:52;;;;;;;0.40;0.40;;;;;;;;;;5052351;28;20017;-71
2022/02/17 03:45:17;;;;;;;0.50;0.40;;;;;;;;;;5052187;28;20028;-74
2022/02/17 03:47:43;;;;;;;0.80;0.80;;;;;;;;;;5051480;28;20037;-75
2022/02/17 03:50:15;;;;;;;0.55;0.55;;;;;;;;;;5053596;28;20059;-72
2022/02/17 03:52:41;;;;;;;1.67;1.05;;;;;;;;;;5052392;28;20471;-72
2022/02/17 03:55:16;;;;;;;1.23;1.20;;;;;;;;;;5052010;28;20021;-71
2022/02/17 03:57:48;;;;;;;1.38;1.23;;;;;;;;;;5052351;28;20029;-72
2022/02/17 04:00:21;;;;;;;1.25;1.15;;;;;;;;;;5052357;28;20075;-70
2022/02/17 04:02:52;;;;;;;1.02;1.02;;;;;;;;;;5052146;28;20017;-70
2022/02/17 04:05:19;;;;;;;0.50;0.50;;;;;;;;;;5052071;28;20025;-72
2022/02/17 04:07:45;;;;;;;1.27;1.17;;;;;;;;;;5052152;28;20024;-72
2022/02/17 04:10:22;;;;;;;1.38;1.27;;;;;;;;;;5052214;28;20022;-71
2022/02/17 04:12:48;;;;;;;1.17;1.15;;;;;;;;;;5052108;28;20024;-72
2022/02/17 04:15:14;;;;;;;1.20;1.13;;;;;;;;;;5051971;28;20024;-72
2022/02/17 04:17:39;;;;;;;1.30;1.20;;;;;;;;;;5051894;28;20056;-71
2022/02/17 04:20:31;;;;;;;1.33;1.23;;;;;;;;;;5053924;28;20391;-71
2022/02/17 04:23:05;;;;;;;0.98;0.98;;;;;;;;;;5055941;28;20475;-71
2022/02/17 04:25:38;;;;;;;1.20;1.10;;;;;;;;;;5057148;28;20094;-72
2022/02/17 04:28:20;;;;;;;1.17;1.15;;;;;;;;;;5056146;28;20044;-73
2022/02/17 04:30:45;;;;;;;1.27;1.00;;;;;;;;;;5055939;28;20025;-73
2022/02/17 04:33:11;;;;;;;0.52;0.52;;;;;;;;;;5055613;28;20013;-74
2022/02/17 04:35:43;;;;;;;0.75;0.75;;;;;;;;;;5055765;28;20032;-73
2022/02/17 04:38:09;;;;;;;1.08;0.68;;;;;;;;;;5056155;28;20037;-72
2022/02/17 04:43:31;;;;;;;0.70;0.70;;;;;;;;;;5055725;28;20029;-71
2022/02/17 04:45:57;;;;;;;0.40;0.40;;;;;;;;;;5055365;28;20029;-71
2022/02/17 04:48:23;;;;;;;0.50;0.50;;;;;;;;;;5055063;28;20037;-71
2022/02/17 04:50:48;;;;;;;0.88;0.70;;;;;;;;;;5055125;28;20021;-72
2022/02/17 04:53:14;;;;;;;0.30;0.30;;;;;;;;;;5054943;28;20035;-77
2022/02/17 04:55:49;;;;;;;0.55;0.55;;;;;;;;;;5054550;28;20478;-77
2022/02/17 04:58:14;;;;;;;1.55;0.77;;;;;;;;;;5054574;28;20025;-71
2022/02/17 05:00:40;;;;;;;1.13;0.65;;;;;;;;;;5055594;28;20027;-72
2022/02/17 05:03:24;;;;;;;0.90;0.90;;;;;;;;;;5055224;28;20056;-72
2022/02/17 05:06:02;;;;;;;0.50;0.30;;;;;;;;;;5055364;28;20029;-72
2022/02/17 05:08:31;;;;;;;0.80;0.65;;;;;;;;;;5054322;28;20028;-71
2022/02/17 05:11:00;;;;;;;0.70;0.47;;;;;;;;;;5054374;28;20017;-71
2022/02/17 05:13:26;;;;;;;0.40;0.40;;;;;;;;;;5054242;28;20071;-71
2022/02/17 05:15:52;;;;;;;1.67;1.10;;;;;;;;;;5054359;28;20420;-71
2022/02/17 05:18:23;;;;;;;0.65;0.65;;;;;;;;;;5054175;28;20467;-71
2022/02/17 05:20:49;;;;;;;0.43;0.43;;;;;;;;;;5054771;28;20529;-72
2022/02/17 05:23:32;;;;;;;0.68;0.30;;;;;;;;;;5054955;28;20024;-72
2022/02/17 05:26:17;;;;;;;0.45;0.45;;;;;;;;;;5056669;28;20044;-73
2022/02/17 05:29:00;;;;;;;0.63;0.60;;;;;;;;;;5054295;28;20024;-73
2022/02/17 05:31:45;;;;;;;0.50;0.50;;;;;;;;;;5054732;28;20466;-72
2022/02/17 05:34:34;;;;;;;0.77;0.60;;;;;;;;;;5056385;28;20041;-73
2022/02/17 05:37:06;;;;;;;0.50;0.50;;;;;;;;;;5054371;28;20084;-73
2022/02/17 05:39:42;;;;;;;0.38;0.38;;;;;;;;;;5054241;28;20110;-73
2022/02/17 05:42:26;;;;;;;0.40;0.40;;;;;;;;;;5054567;28;20052;-72
2022/02/17 05:44:51;;;;;;;0.40;0.40;;;;;;;;;;5052606;28;20475;-73
2022/02/17 05:47:16;;;;;;;0.50;0.40;;;;;;;;;;5053862;28;20024;-73
2022/02/17 05:49:42;;;;;;;0.20;0.15;;;;;;;;;;5054152;28;20106;-72
2022/02/17 05:52:07;;;;;;;0.40;0.40;;;;;;;;;;5055258;28;20032;-74
2022/02/17 05:54:33;;;;;;;0.55;0.55;;;;;;;;;;5055036;28;20044;-72
2022/02/17 05:56:58;;;;;;;0.30;0.30;;;;;;;;;;5037411;28;20091;-74
2022/02/17 05:59:30;;;;;;;0.93;0.93;;;;;;;;;;5055248;28;20035;-71
2022/02/17 06:01:55;;;;;;;0.40;0.40;;;;;;;;;;5055214;28;20029;-72
2022/02/17 06:04:20;;;;;;;0.77;0.77;;;;;;;;;;5055116;28;20132;-73
2022/02/17 06:06:46;;;;;;;0.52;0.52;;;;;;;;;;5054321;28;20043;-74
2022/02/17 06:09:11;;;;;;;0.65;0.65;;;;;;;;;;5055034;28;20024;-72
2022/02/17 06:11:38;;;;;;;0.43;0.35;;;;;;;;;;5054945;28;20104;-72
2022/02/17 06:14:08;;;;;;;;;;;;;;;;;;5054937;28;20017;-73
2022/02/17 06:16:33;;;;;;;0.88;0.50;;;;;;;;;;5055090;28;19913;-74
2022/02/17 06:19:00;;;;;;;0.25;0.20;;;;;;;;;;5037193;28;20021;-74
2022/02/17 06:21:26;;;;;;;0.50;0.40;;;;;;;;;;5055001;28;20089;-72
2022/02/17 06:23:51;;;;;;;0.20;0.20;;;;;;;;;;5053704;28;20467;-72
2022/02/17 06:26:18;;;;;;;0.30;0.30;;;;;;;;;;5053419;28;20506;-72
2022/02/17 06:28:44;;;;;;;0.25;0.25;;;;;;;;;;5053285;28;20021;-72
2022/02/17 06:31:10;;;;;;;0.20;0.20;;;;;;;;;;5054595;28;20063;-72
2022/02/17 06:33:35;;;;;;;0.40;0.30;;;;;;;;;;5053294;28;20378;-72
2022/02/17 06:36:01;;;;;;;0.50;0.50;;;;;;;;;;5053127;28;20086;-72
2022/02/17 06:38:27;;;;;;;0.30;0.20;;;;;;;;;;5054299;28;20024;-72
2022/02/17 06:40:52;;;;;;;0.30;0.30;;;;;;;;;;5053333;28;20029;-72
2022/02/17 06:43:19;;;;;;;0.82;0.40;;;;;;;;;;5036483;28;20079;-72
2022/02/17 06:45:46;;;;;;;0.20;0.20;;;;;;;;;;5053133;28;20029;-72
2022/02/17 06:48:13;;;;;;;0.30;0.30;;;;;;;;;;5053535;28;20132;-72
2022/02/17 06:50:39;;;;;;;0.40;0.40;;;;;;;;;;5054055;28;20382;-74
2022/02/17 06:53:08;;;;;;;0.20;0.20;;;;;;;;;;5053095;28;20013;-72
2022/02/17 06:55:34;;;;;;;0.30;0.30;;;;;;;;;;5053834;28;20478;-72
2022/02/17 06:58:00;;;;;;;0.65;0.30;;;;;;;;;;5053030;28;20100;-72
2022/02/17 07:00:26;;;;;;;1.15;0.80;;;;;;;;;;5054112;28;20514;-72
2022/02/17 07:02:52;;;;;;;0.88;0.60;;;;;;;;;;5052597;28;20112;-76
2022/02/17 07:05:18;;;;;;;1.05;0.75;;;;;;;;;;5052489;28;20033;-73
2022/02/17 07:07:44;;;;;;;0.85;0.75;;;;;;;;;;5052169;28;20017;-73
2022/02/17 07:10:09;;;;;;;1.52;0.73;;;;;;;;;;5053867;28;20037;-73
2022/02/17 07:12:35;;;;;;;2.33;0.98;;;;;;;;;;5053844;28;20016;-73
2022/02/17 07:15:02;;;;;;;2.83;0.90;;;;;;;;;;5052500;28;20108;-73
2022/02/17 07:17:27;;;;;;;2.10;0.70;;;;;;;;;;5053592;28;20032;-73
2022/02/17 07:19:53;;;;;;;2.13;0.75;;;;;;;;;;5053576;28;20037;-73
2022/02/17 07:22:18;;;;;;;12.05;6.20;;;;;;;;;;5053610;28;20103;-73
2022/02/17 07:24:44;;;;;;;9.15;2.75;;;;;;;;;;5053616;28;20025;-73
2022/02/17 07:27:09;;;;;;;7.50;2.03;;;;;;;;;;5035637;28;20021;-73
2022/02/17 07:29:36;;;;;;;3.50;1.20;;;;;;;;;;5035588;28;20071;-73
2022/02/17 07:32:03;;;;;;;2.97;1.27;;;;;;;;;;5053442;28;20543;-73
2022/02/17 07:34:29;;;;;;;1.17;0.80;;;;;;;;;;5053480;28;20031;-73
2022/02/17 07:36:54;;;;;;;2.10;1.17;;;;;;;;;;5053637;28;20378;-73
2022/02/17 07:39:20;;;;;;;2.33;1.95;;;;;;;;;;5053731;28;20041;-73
2022/02/17 07:41:47;;;;;;;3.10;1.65;;;;;;;;;;5052382;28;20073;-73
2022/02/17 07:44:12;;;;;;;3.28;1.05;;;;;;;;;;5053458;28;20049;-73
2022/02/17 07:46:38;;;;;;;3.08;1.30;;;;;;;;;;5052486;28;20020;-73
2022/02/17 07:49:03;;;;;;;1.40;0.70;;;;;;;;;;5053091;28;20037;-73
2022/02/17 07:51:29;;;;;;;1.60;0.82;;;;;;;;;;5053211;28;20052;-73
2022/02/17 07:53:55;;;;;;;0.88;0.70;;;;;;;;;;5051815;28;20029;-73
2022/02/17 07:56:20;;;;;;;0.82;0.70;;;;;;;;;;5051274;28;20013;-73
2022/02/17 07:58:46;;;;;;;0.57;0.50;;;;;;;;;;5052763;28;20036;-74
2022/02/17 08:01:15;;;;;;;1.40;0.93;;;;;;;;;;5052167;28;20012;-73
2022/02/17 08:03:40;;;;;;;1.13;0.50;;;;;;;;;;5053088;28;20087;-73
2022/02/17 08:06:07;;;;;;;0.70;0.70;;;;;;;;;;5052389;28;20401;-73
2022/02/17 08:08:33;;;;;;;0.60;0.60;;;;;;;;;;5053097;28;20029;-75
2022/02/17 08:10:58;;;;;;;1.08;0.57;;;;;;;;;;5050900;28;20091;-74
2022/02/17 08:13:24;;;;;;;0.68;0.55;;;;;;;;;;5047873;28;20035;-74
2022/02/17 08:15:50;;;;;;;0.40;0.40;;;;;;;;;;5051190;28;20029;-69
2022/02/17 08:18:16;;;;;;;1.00;0.63;;;;;;;;;;5050140;28;20041;-74
2022/02/17 08:20:44;;;;;;;2.45;0.70;;;;;;;;;;5048204;28;20788;-74
2022/02/17 08:23:10;;;;;;;1.23;0.43;;;;;;;;;;5046583;28;20033;-79
2022/02/17 08:25:36;;;;;;;0.50;0.50;;;;;;;;;;5052460;28;20680;-79
2022/02/17 08:28:01;;;;;;;0.52;0.47;;;;;;;;;;5051041;28;20032;-79
2022/02/17 08:30:29;;;;;;;0.60;0.55;;;;;;;;;;5051905;28;20100;-79
2022/02/17 08:32:56;;;;;;;1.70;1.00;;;;;;;;;;5051578;28;20111;-71
2022/02/17 08:35:21;;;;;;;1.00;0.90;;;;;;;;;;5049826;28;20399;-77
2022/02/17 08:37:47;;;;;;;2.72;1.23;;;;;;;;;;5048174;28;20040;-74
2022/02/17 08:40:12;;;;;;;1.27;1.00;;;;;;;;;;5047735;28;20025;-74
2022/02/17 08:42:38;;;;;;;0.80;0.65;;;;;;;;;;5048193;28;20037;-74
2022/02/17 08:45:04;;;;;;;1.05;0.73;;;;;;;;;;5049253;28;20032;-74
2022/02/17 08:47:30;;;;;;;1.55;0.73;;;;;;;;;;5047784;28;20079;-74
2022/02/17 08:49:55;;;;;;;0.90;0.77;;;;;;;;;;5049091;28;20033;-74
2022/02/17 08:52:21;;;;;;;1.02;0.70;;;;;;;;;;5047831;28;20074;-74
2022/02/17 08:54:48;;;;;;;1.23;1.02;;;;;;;;;;5049135;28;20067;-74
2022/02/17 08:57:13;;;;;;;1.05;0.70;;;;;;;;;;5047505;28;20033;-74
2022/02/17 08:59:39;;;;;;;1.20;1.10;;;;;;;;;;5047901;28;20033;-74
2022/02/17 09:02:04;;;;;;;1.73;1.42;;;;;;;;;;5047705;28;20033;-74
2022/02/17 09:04:32;;;;;;;1.92;1.77;;;;;;;;;;5049115;28;20475;-74
2022/02/17 09:06:58;;;;;;;1.40;1.30;;;;;;;;;;5048038;28;20040;-74
2022/02/17 09:09:23;;;;;;;1.17;1.00;;;;;;;;;;5052440;28;20033;-74
2022/02/17 09:11:49;;;;;;;1.23;1.13;;;;;;;;;;5052457;28;20029;-74
2022/02/17 09:14:15;;;;;;;1.85;1.52;;;;;;;;;;5052494;28;20066;-75
2022/02/17 09:16:40;;;;;;;2.08;1.30;;;;;;;;;;5051465;28;20083;-75
2022/02/17 09:19:06;;;;;;;1.92;1.20;;;;;;;;;;5052622;28;20040;-68
2022/02/17 09:21:31;;;;;;;2.08;1.58;;;;;;;;;;5052406;28;20044;-73
2022/02/17 09:23:57;;;;;;;2.95;1.40;;;;;;;;;;5054385;28;20024;-74
2022/02/17 09:26:23;;;;;;;2.25;1.13;;;;;;;;;;5056165;28;20069;-73
2022/02/17 09:28:48;;;;;;;2.05;1.83;;;;;;;;;;5054759;28;20078;-74
2022/02/17 09:31:19;;;;;;;4.55;3.75;;;;;;;;;;5055973;28;20027;-73
2022/02/17 09:33:46;;;;;;;4.22;2.88;;;;;;;;;;5055281;28;20069;-73
2022/02/17 09:36:11;;;;;;;1.98;1.25;;;;;;;;;;5054457;28;20430;-73
2022/02/17 09:38:37;;;;;;;1.77;1.52;;;;;;;;;;5054558;28;20037;-73
2022/02/17 09:41:06;;;;;;;2.63;1.15;;;;;;;;;;5055947;28;20033;-73
2022/02/17 09:43:32;;;;;;;1.90;1.63;;;;;;;;;;5056083;28;20099;-73
2022/02/17 09:45:57;;;;;;;2.67;1.48;;;;;;;;;;5054506;28;20025;-73
2022/02/17 09:48:23;;;;;;;3.03;1.60;;;;;;;;;;5054916;28;20036;-73
2022/02/17 09:50:50;;;;;;;4.32;2.33;;;;;;;;;;5055471;28;20025;-73
2022/02/17 09:53:16;;;;;;;4.25;2.65;;;;;;;;;;5055454;28;20040;-73
2022/02/17 09:55:42;;;;;;;2.38;1.42;;;;;;;;;;5054326;28;20025;-73
2022/02/17 09:58:08;;;;;;;4.75;2.80;;;;;;;;;;5055467;28;20037;-73
2022/02/17 10:00:34;;;;;;;6.90;2.88;;;;;;;;;;5055428;28;20021;-73
2022/02/17 10:03:38;;;;;;;8.82;3.47;;;;;;;;;;5055336;28;20021;-73
2022/02/17 10:06:10;;;;;;;7.68;3.15;;;;;;;;;;5033073;28;20033;-73
2022/02/17 10:08:37;;;;;;;3.55;2.50;;;;;;;;;;5048080;28;20502;-73
2022/02/17 10:11:08;;;;;;;4.93;3.05;;;;;;;;;;5054988;28;20098;-72
2022/02/17 10:13:34;;;;;;;4.75;2.65;;;;;;;;;;5053302;28;20506;-73
2022/02/17 10:16:00;;;;;;;5.68;3.53;;;;;;;;;;5053807;28;20021;-73
2022/02/17 10:18:30;;;;;;;3.15;2.10;;;;;;;;;;5053291;28;20425;-73
2022/02/17 10:21:09;;;;;;;5.35;3.10;;;;;;;;;;5055150;28;20471;-73
2022/02/17 10:23:43;;;;;;;4.18;2.53;;;;;;;;;;5055144;28;20486;-73
2022/02/17 10:26:11;;;;;;;4.10;2.50;;;;;;;;;;5053972;28;20071;-73
2022/02/17 10:28:42;;;;;;;4.90;2.40;;;;;;;;;;5054770;28;20455;-73
2022/02/17 10:31:19;;;;;;;5.03;2.50;;;;;;;;;;5054932;28;20032;-73
2022/02/17 10:33:46;;;;;;;2.35;1.80;;;;;;;;;;5053432;28;20037;-73
2022/02/17 10:36:12;;;;;;;2.70;1.80;;;;;;;;;;5054789;28;20021;-72
2022/02/17 10:38:38;;;;;;;3.42;2.25;;;;;;;;;;5053489;28;20056;-72
2022/02/17 10:41:04;;;;;;;3.70;2.25;;;;;;;;;;5054546;28;20025;-72
2022/02/17 10:43:30;;;;;;;3.90;2.25;;;;;;;;;;5054636;28;20123;-72
2022/02/17 10:46:03;;;;;;;3.65;2.00;;;;;;;;;;5053128;28;20021;-73
2022/02/17 10:48:30;;;;;;;3.40;2.35;;;;;;;;;;5052359;28;20056;-72
2022/02/17 10:51:16;;;;;;;1.40;1.20;;;;;;;;;;5052732;28;20029;-72
2022/02/17 10:54:01;;;;;;;2.95;1.00;;;;;;;;;;5054364;28;20128;-72
2022/02/17 10:56:30;;;;;;;3.13;2.00;;;;;;;;;;5052829;28;20438;-72
2022/02/17 10:58:58;;;;;;;3.75;2.15;;;;;;;;;;5054214;28;20436;-72
2022/02/17 11:01:25;;;;;;;2.50;1.98;;;;;;;;;;5054339;28;20486;-72
2022/02/17 11:03:51;;;;;;;5.53;2.67;;;;;;;;;;5054418;28;20063;-72
2022/02/17 11:06:17;;;;;;;1.40;1.13;;;;;;;;;;5052924;28;20119;-72
2022/02/17 11:08:43;;;;;;;3.10;1.85;;;;;;;;;;5052499;28;20020;-72
2022/02/17 11:11:10;;;;;;;2.45;1.77;;;;;;;;;;5052877;28;20438;-72
2022/02/17 11:13:36;;;;;;;2.92;1.55;;;;;;;;;;5053914;28;20013;-72
2022/02/17 11:16:04;;;;;;;1.10;1.00;;;;;;;;;;5054207;28;20049;-72
2022/02/17 11:18:31;;;;;;;1.15;1.05;;;;;;;;;;5053907;28;20107;-72
2022/02/17 11:20:57;;;;;;;2.10;1.10;;;;;;;;;;5053750;28;20517;-72
2022/02/17 11:23:34;;;;;;;1.98;1.60;;;;;;;;;;5054028;28;20475;-72
2022/02/17 11:26:00;;;;;;;2.00;1.25;;;;;;;;;;5053910;28;20078;-72
2022/02/17 11:28:35;;;;;;;2.35;1.27;;;;;;;;;;5054089;28;20021;-72
2022/02/17 11:31:07;;;;;;;1.63;1.33;;;;;;;;;;5053265;28;20033;-72
2022/02/17 11:33:39;;;;;;;1.85;0.70;;;;;;;;;;5052538;28;20467;-73
2022/02/17 11:36:07;;;;;;;2.13;1.30;;;;;;;;;;5052347;28;20036;-78
2022/02/17 11:38:37;;;;;;;1.58;0.90;;;;;;;;;;5053006;28;20021;-73
2022/02/17 11:41:06;;;;;;;3.25;1.40;;;;;;;;;;5052871;28;20502;-74
2022/02/17 11:43:32;;;;;;;0.73;0.73;;;;;;;;;;5044720;28;20035;-73
2022/02/17 11:45:58;;;;;;;2.47;0.73;;;;;;;;;;5048670;28;20040;-73
2022/02/17 11:48:34;;;;;;;1.15;0.90;;;;;;;;;;5049009;28;20414;-73
2022/02/17 11:51:15;;;;;;;1.27;0.73;;;;;;;;;;5047469;28;20142;-72
2022/02/17 11:53:41;;;;;;;0.85;0.70;;;;;;;;;;5048110;28;20068;-73
2022/02/17 11:56:20;;;;;;;0.77;0.77;;;;;;;;;;5048670;28;20024;-73
2022/02/17 11:58:49;;;;;;;1.75;0.60;;;;;;;;;;5047564;28;20029;-72
2022/02/17 12:01:33;;;;;;;0.43;0.40;;;;;;;;;;5048829;28;20387;-73
2022/02/17 12:04:18;;;;;;;0.50;0.50;;;;;;;;;;5055546;28;20459;-73
2022/02/17 12:06:48;;;;;;;0.70;0.50;;;;;;;;;;5044655;28;20483;-72
2022/02/17 12:09:28;;;;;;;1.15;0.57;;;;;;;;;;5030626;28;20111;-72
2022/02/17 12:11:54;;;;;;;;;;;;;;;;;;5046004;28;20664;-73
2022/02/17 12:14:20;;;;;;;0.50;0.50;;;;;;;;;;5049617;28;19915;-72
2022/02/17 12:16:52;;;;;;;0.50;0.50;;;;;;;;;;5047322;28;20655;-72
2022/02/17 12:19:18;;;;;;;0.80;0.70;;;;;;;;;;5047833;28;20033;-72
2022/02/17 12:21:44;;;;;;;0.30;0.30;;;;;;;;;;5049310;28;20070;-72
2022/02/17 12:24:12;;;;;;;0.40;0.40;;;;;;;;;;5049369;28;20029;-72
2022/02/17 12:26:42;;;;;;;0.65;0.50;;;;;;;;;;5049023;28;20012;-72
2022/02/17 12:29:08;;;;;;;;;;;;;;;;;;5053465;28;20035;-73
2022/02/17 12:31:37;;;;;;;0.98;0.50;;;;;;;;;;5052998;28;19926;-73
2022/02/17 12:34:04;;;;;;;0.93;0.32;;;;;;;;;;5048290;28;20119;-73
2022/02/17 12:36:35;;;;;;;1.23;0.25;;;;;;;;;;5048730;28;20492;-73
2022/02/17 12:39:04;;;;;;;0.98;0.50;;;;;;;;;;5048893;28;20124;-73
2022/02/17 12:41:30;;;;;;;2.72;0.80;;;;;;;;;;5045486;28;20029;-73
2022/02/17 12:43:58;;;;;;;1.20;0.75;;;;;;;;;;5052647;28;20143;-73
2022/02/17 12:46:24;;;;;;;0.82;0.82;;;;;;;;;;5052408;28;20787;-73
2022/02/17 12:48:50;;;;;;;0.85;0.57;;;;;;;;;;5048107;28;20409;-73
2022/02/17 12:51:26;;;;;;;0.38;0.32;;;;;;;;;;5053261;28;20028;-72
2022/02/17 12:53:54;;;;;;;0.98;0.38;;;;;;;;;;5050833;28;20020;-72
2022/02/17 12:56:20;;;;;;;2.05;0.68;;;;;;;;;;5052156;28;20009;-73
2022/02/17 12:58:46;;;;;;;1.52;0.55;;;;;;;;;;5050300;28;20080;-72
2022/02/17 13:01:20;;;;;;;0.30;0.30;;;;;;;;;;5051471;28;20017;-72
2022/02/17 13:03:46;;;;;;;0.80;0.55;;;;;;;;;;5048355;28;20120;-72
2022/02/17 13:06:17;;;;;;;1.40;0.90;;;;;;;;;;5052343;28;20137;-72
2022/02/17 13:08:53;;;;;;;0.50;0.50;;;;;;;;;;5052808;28;20051;-72
2022/02/17 13:11:20;;;;;;;0.85;0.70;;;;;;;;;;5051681;28;20048;-72
2022/02/17 13:13:45;;;;;;;2.25;0.82;;;;;;;;;;5052651;28;20043;-72
2022/02/17 13:16:14;;;;;;;0.47;0.47;;;;;;;;;;5052699;28;20033;-72
2022/02/17 13:18:41;;;;;;;0.40;0.40;;;;;;;;;;5052724;28;20071;-72
2022/02/17 13:21:13;;;;;;;0.52;0.50;;;;;;;;;;5052674;28;20060;-72
2022/02/17 13:23:41;;;;;;;0.80;0.80;;;;;;;;;;5051185;28;20033;-72
2022/02/17 13:26:25;;;;;;;0.90;0.57;;;;;;;;;;5049781;28;20475;-72
2022/02/17 13:28:51;;;;;;;0.80;0.60;;;;;;;;;;5048691;28;20028;-72
2022/02/17 13:31:21;;;;;;;0.88;0.60;;;;;;;;;;5050968;28;20111;-72
2022/02/17 13:33:46;;;;;;;0.93;0.80;;;;;;;;;;5052343;28;20037;-72
2022/02/17 13:36:25;;;;;;;1.02;0.82;;;;;;;;;;5051674;28;20020;-72
2022/02/17 13:39:26;;;;;;;2.17;0.57;;;;;;;;;;5050828;28;20053;-72
2022/02/17 13:42:00;;;;;;;0.57;0.50;;;;;;;;;;5029211;28;20825;-72
2022/02/17 13:44:26;;;;;;;0.63;0.52;;;;;;;;;;5048265;28;20048;-72
2022/02/17 13:46:54;;;;;;;2.45;0.75;;;;;;;;;;5050432;28;20032;-72
2022/02/17 13:49:20;;;;;;;0.70;0.70;;;;;;;;;;5049754;28;20051;-72
2022/02/17 13:51:48;;;;;;;0.40;0.30;;;;;;;;;;5051595;28;20033;-72
2022/02/17 13:54:15;;;;;;;1.65;0.85;;;;;;;;;;5049224;28;20033;-72
2022/02/17 13:56:47;;;;;;;1.75;0.40;;;;;;;;;;5050584;28;20027;-72
2022/02/17 13:59:13;;;;;;;0.68;0.60;;;;;;;;;;5049260;28;20479;-72
2022/02/17 14:01:44;;;;;;;1.55;0.60;;;;;;;;;;5051072;28;20025;-72
2022/02/17 14:04:14;;;;;;;0.45;0.40;;;;;;;;;;5050923;28;20074;-72
2022/02/17 14:06:40;;;;;;;1.45;0.77;;;;;;;;;;5050541;28;20033;-72
2022/02/17 14:09:06;;;;;;;0.50;0.50;;;;;;;;;;5051442;28;20028;-72
2022/02/17 14:11:32;;;;;;;0.65;0.30;;;;;;;;;;5051476;28;20036;-72
2022/02/17 14:13:57;;;;;;;0.77;0.50;;;;;;;;;;5050386;28;20070;-72
2022/02/17 14:16:23;;;;;;;1.80;0.50;;;;;;;;;;5051336;28;20024;-72
2022/02/17 14:18:48;;;;;;;0.68;0.50;;;;;;;;;;5051799;28;20027;-72
2022/02/17 14:21:16;;;;;;;3.25;1.05;;;;;;;;;;5051441;28;20742;-72
2022/02/17 14:23:42;;;;;;;1.05;0.80;;;;;;;;;;5051643;28;20415;-72
2022/02/17 14:26:08;;;;;;;1.75;1.10;;;;;;;;;;5049914;28;20033;-72
2022/02/17 14:28:34;;;;;;;0.73;0.68;;;;;;;;;;5051080;28;20017;-72
2022/02/17 14:30:59;;;;;;;1.23;0.55;;;;;;;;;;5050860;28;20029;-72
2022/02/17 14:33:25;;;;;;;0.90;0.50;;;;;;;;;;5051087;28;20021;-72
2022/02/17 14:35:51;;;;;;;2.65;1.10;;;;;;;;;;5050338;28;20017;-72
2022/02/17 14:38:18;;;;;;;0.52;0.40;;;;;;;;;;5050304;28;20116;-72
2022/02/17 14:40:46;;;;;;;1.13;0.70;;;;;;;;;;5051028;28;20154;-71
2022/02/17 14:43:15;;;;;;;1.55;1.45;;;;;;;;;;5048805;28;20059;-72
2022/02/17 14:45:41;;;;;;;1.42;1.13;;;;;;;;;;5049356;28;20104;-72
2022/02/17 14:48:08;;;;;;;1.48;0.90;;;;;;;;;;5049698;28;20144;-72
2022/02/17 14:50:34;;;;;;;0.47;0.47;;;;;;;;;;5050803;28;20120;-73
2022/02/17 14:53:00;;;;;;;1.00;0.82;;;;;;;;;;5049406;28;20172;-72